createdAt,value
2019-04-26T00:05:29.000Z,0
2019-04-26T00:10:42.000Z,0
2019-04-26T00:15:54.000Z,0
2019-04-26T00:21:06.000Z,0
2019-04-26T00:36:43.000Z,0
2019-04-26T00:47:08.000Z,0
2019-04-26T00:57:33.000Z,0
2019-04-26T01:07:57.000Z,0
2019-04-26T01:13:10.000Z,0
2019-04-26T01:18:22.000Z,0
2019-04-26T01:23:34.000Z,0
2019-04-26T01:28:46.000Z,0
2019-04-26T01:39:11.000Z,0
2019-04-26T01:44:23.000Z,0
2019-04-26T01:54:48.000Z,0
2019-04-26T02:00:00.000Z,0
2019-04-26T02:10:25.000Z,0
2019-04-26T02:15:37.000Z,0
2019-04-26T02:20:49.000Z,0
2019-04-26T02:31:14.000Z,0
2019-04-26T02:41:39.000Z,0
2019-04-26T02:46:51.000Z,0
2019-04-26T02:52:03.000Z,0
2019-04-26T02:57:16.000Z,0
2019-04-26T03:12:53.000Z,0
2019-04-26T03:18:05.000Z,0
2019-04-26T03:23:17.000Z,0
2019-04-26T03:28:29.000Z,0
2019-04-26T03:33:42.000Z,0
2019-04-26T03:38:54.000Z,0
2019-04-26T03:49:19.000Z,0
2019-04-26T03:54:31.000Z,0
2019-04-26T03:59:43.000Z,4
2019-04-26T04:04:56.000Z,4
2019-04-26T04:15:21.000Z,4
2019-04-26T04:20:33.000Z,16
2019-04-26T04:25:45.000Z,24
2019-04-26T04:30:58.000Z,36
2019-04-26T04:41:22.000Z,40
2019-04-26T04:46:34.000Z,92
2019-04-26T04:51:47.000Z,104
2019-04-26T04:56:59.000Z,128
2019-04-26T05:02:12.000Z,112
2019-04-26T05:07:24.000Z,152
2019-04-26T05:12:36.000Z,204
2019-04-26T05:17:48.000Z,216
2019-04-26T05:23:01.000Z,144
2019-04-26T05:28:13.000Z,108
2019-04-26T05:33:26.000Z,128
2019-04-26T05:38:38.000Z,196
2019-04-26T05:43:50.000Z,228
2019-04-26T05:49:02.000Z,308
2019-04-26T05:54:15.000Z,412
2019-04-26T05:59:27.000Z,524
2019-04-26T06:09:52.000Z,896
2019-04-26T06:15:04.000Z,1072
2019-04-26T06:20:16.000Z,1056
2019-04-26T06:25:28.000Z,664
2019-04-26T06:30:41.000Z,720
2019-04-26T06:35:53.000Z,788
2019-04-26T06:41:06.000Z,768
2019-04-26T06:51:30.000Z,644
2019-04-26T06:56:42.000Z,800
2019-04-26T07:01:55.000Z,804
2019-04-26T07:07:07.000Z,852
2019-04-26T07:12:20.000Z,552
2019-04-26T07:17:32.000Z,648
2019-04-26T07:22:44.000Z,696
2019-04-26T07:27:56.000Z,800
2019-04-26T07:33:09.000Z,568
2019-04-26T07:38:21.000Z,720
2019-04-26T07:43:34.000Z,660
2019-04-26T07:53:58.000Z,1028
2019-04-26T07:59:10.000Z,1212
2019-04-26T08:14:47.000Z,2352
2019-04-26T08:30:24.000Z,1900
2019-04-26T08:35:36.000Z,2380
2019-04-26T08:40:49.000Z,1500
2019-04-26T08:46:01.000Z,2004
2019-04-26T09:01:38.000Z,1876
2019-04-26T09:06:50.000Z,1148
2019-04-26T09:12:03.000Z,1076
2019-04-26T09:17:15.000Z,1292
2019-04-26T09:27:39.000Z,1752
2019-04-26T09:32:52.000Z,1760
2019-04-26T09:38:04.000Z,2640
2019-04-26T09:43:16.000Z,2568
2019-04-26T09:48:28.000Z,3048
2019-04-26T09:53:41.000Z,2252
2019-04-26T09:58:53.000Z,2968
2019-04-26T10:04:06.000Z,2984
2019-04-26T10:14:30.000Z,2044
2019-04-26T10:19:42.000Z,2900
2019-04-26T10:30:07.000Z,2860
2019-04-26T10:35:19.000Z,2472
2019-04-26T10:40:31.000Z,2412
2019-04-26T10:45:43.000Z,3120
2019-04-26T10:50:56.000Z,3636
2019-04-26T11:01:20.000Z,3756
2019-04-26T11:06:32.000Z,3548
2019-04-26T11:11:45.000Z,4680
2019-04-26T11:22:09.000Z,5156
2019-04-26T11:32:34.000Z,3528
2019-04-26T11:37:46.000Z,3796
2019-04-26T11:42:58.000Z,4276
2019-04-26T11:48:10.000Z,3608
2019-04-26T12:03:47.000Z,3968
2019-04-26T12:08:59.000Z,2920
2019-04-26T12:35:01.000Z,3816
2019-04-26T12:40:13.000Z,4080
2019-04-26T12:45:25.000Z,3072
2019-04-26T12:50:37.000Z,4384
2019-04-26T12:55:50.000Z,4388
2019-04-26T13:01:02.000Z,3576
2019-04-26T13:06:14.000Z,3408
2019-04-26T13:11:27.000Z,4556
2019-04-26T13:16:39.000Z,4436
2019-04-26T13:27:03.000Z,4264
2019-04-26T13:32:16.000Z,3580
2019-04-26T13:37:28.000Z,3972
2019-04-26T13:42:40.000Z,3540
2019-04-26T13:47:52.000Z,5216
2019-04-26T13:53:05.000Z,4524
2019-04-26T14:03:29.000Z,2608
2019-04-26T14:08:42.000Z,2884
2019-04-26T14:13:54.000Z,4148
2019-04-26T14:19:06.000Z,3744
2019-04-26T14:24:18.000Z,4700
2019-04-26T14:29:31.000Z,3948
2019-04-26T14:39:55.000Z,4132
2019-04-26T14:45:08.000Z,4212
2019-04-26T14:50:20.000Z,4060
2019-04-26T14:55:32.000Z,3304
2019-04-26T15:00:45.000Z,4464
2019-04-26T15:11:09.000Z,3092
2019-04-26T15:21:34.000Z,3172
2019-04-26T15:26:46.000Z,2748
2019-04-26T15:31:59.000Z,2468
2019-04-26T15:42:24.000Z,2404
2019-04-26T15:47:36.000Z,3648
2019-04-26T15:52:48.000Z,2608
2019-04-26T15:58:01.000Z,2680
2019-04-26T16:03:13.000Z,2472
2019-04-26T16:08:26.000Z,2828
2019-04-26T16:13:38.000Z,3344
2019-04-26T16:24:03.000Z,2544
2019-04-26T16:34:28.000Z,3128
2019-04-26T16:39:41.000Z,2872
2019-04-26T16:44:53.000Z,2604
2019-04-26T16:50:06.000Z,2044
2019-04-26T16:55:18.000Z,1164
2019-04-26T17:00:30.000Z,616
2019-04-26T17:05:43.000Z,448
2019-04-26T17:16:07.000Z,552
2019-04-26T17:21:20.000Z,252
2019-04-26T17:31:44.000Z,88
2019-04-26T17:36:57.000Z,240
2019-04-26T17:42:09.000Z,664
2019-04-26T17:47:21.000Z,368
2019-04-26T17:52:34.000Z,676
2019-04-26T17:57:46.000Z,1032
2019-04-26T18:08:10.000Z,588
2019-04-26T18:13:23.000Z,408
2019-04-26T18:18:35.000Z,352
2019-04-26T18:23:47.000Z,296
2019-04-26T18:28:59.000Z,220
2019-04-26T18:34:12.000Z,160
2019-04-26T18:39:24.000Z,104
2019-04-26T18:49:48.000Z,40
2019-04-26T18:55:01.000Z,20
2019-04-26T19:00:13.000Z,12
2019-04-26T19:05:25.000Z,4
2019-04-26T19:10:37.000Z,0
2019-04-26T19:15:50.000Z,0
2019-04-26T19:21:02.000Z,0
2019-04-26T19:26:14.000Z,0
2019-04-26T19:31:26.000Z,0
2019-04-26T19:36:38.000Z,0
2019-04-26T19:41:51.000Z,0
2019-04-26T19:52:15.000Z,0
2019-04-26T19:57:27.000Z,0
2019-04-26T20:02:40.000Z,0
2019-04-26T20:07:52.000Z,0
2019-04-26T20:13:04.000Z,0
2019-04-26T20:18:16.000Z,0
2019-04-26T20:23:29.000Z,0
2019-04-26T20:28:41.000Z,0
2019-04-26T20:33:54.000Z,0
2019-04-26T20:44:18.000Z,0
2019-04-26T20:49:30.000Z,0
2019-04-26T20:54:43.000Z,0
2019-04-26T20:59:55.000Z,0
2019-04-26T21:05:08.000Z,0
2019-04-26T21:15:32.000Z,0
2019-04-26T21:25:56.000Z,0
2019-04-26T21:31:09.000Z,0
2019-04-26T21:36:22.000Z,0
2019-04-26T21:46:46.000Z,0
2019-04-26T21:51:58.000Z,0
2019-04-26T21:57:10.000Z,0
2019-04-26T22:02:23.000Z,0
2019-04-26T22:07:35.000Z,0
2019-04-26T22:18:00.000Z,0
2019-04-26T22:28:24.000Z,0
2019-04-26T22:33:37.000Z,0
2019-04-26T22:38:49.000Z,0
2019-04-26T22:49:13.000Z,0
2019-04-26T22:59:38.000Z,0
2019-04-26T23:04:51.000Z,0
2019-04-26T23:10:03.000Z,0
2019-04-26T23:20:27.000Z,0
2019-04-26T23:30:52.000Z,0
2019-04-26T23:36:04.000Z,0
2019-04-26T23:41:17.000Z,0
